createdAt,value
2018-01-05T00:00:33.431Z,0
2018-01-05T00:01:35.934Z,0
2018-01-05T00:02:38.426Z,0
2018-01-05T00:03:41.213Z,0
2018-01-05T00:04:43.710Z,0
2018-01-05T00:05:46.201Z,0
2018-01-05T00:06:48.694Z,0
2018-01-05T00:07:51.239Z,0
2018-01-05T00:08:53.978Z,0
2018-01-05T00:09:56.770Z,0
2018-01-05T00:10:59.249Z,0
2018-01-05T00:12:01.747Z,0
2018-01-05T00:13:04.528Z,0
2018-01-05T00:14:07.029Z,0
2018-01-05T00:15:09.811Z,0
2018-01-05T00:16:12.313Z,0
2018-01-05T00:17:14.800Z,0
2018-01-05T00:18:17.307Z,0
2018-01-05T00:19:19.803Z,0
2018-01-05T00:20:22.292Z,0
2018-01-05T00:21:24.785Z,0
2018-01-05T00:22:27.289Z,0
2018-01-05T00:23:29.782Z,0
2018-01-05T00:24:32.284Z,0
2018-01-05T00:25:35.343Z,0
2018-01-05T00:26:37.841Z,0
2018-01-05T00:27:40.340Z,0
2018-01-05T00:28:42.837Z,0
2018-01-05T00:29:45.324Z,0
2018-01-05T00:30:47.825Z,0
2018-01-05T00:31:50.308Z,0
2018-01-05T00:32:52.825Z,0
2018-01-05T00:33:55.316Z,0
2018-01-05T00:34:57.805Z,0
2018-01-05T00:36:00.308Z,0
2018-01-05T00:37:02.795Z,0
2018-01-05T00:38:05.298Z,0
2018-01-05T00:39:07.797Z,0
2018-01-05T00:40:10.301Z,0
2018-01-05T00:41:12.803Z,0
2018-01-05T00:42:15.299Z,0
2018-01-05T00:43:18.070Z,0
2018-01-05T00:44:20.577Z,0
2018-01-05T00:45:23.067Z,0
2018-01-05T00:46:25.564Z,0
2018-01-05T00:47:28.054Z,0
2018-01-05T00:48:30.545Z,0
2018-01-05T00:49:33.041Z,0
2018-01-05T00:50:35.541Z,0
2018-01-05T00:51:38.031Z,0
2018-01-05T00:52:40.582Z,0
2018-01-05T00:53:43.026Z,0
2018-01-05T00:54:45.523Z,0
2018-01-05T00:55:48.026Z,0
2018-01-05T00:56:50.520Z,0
2018-01-05T00:57:53.007Z,0
2018-01-05T00:58:55.517Z,0
2018-01-05T00:59:58.009Z,0
2018-01-05T01:01:00.504Z,0
2018-01-05T01:02:02.999Z,0
2018-01-05T01:03:05.497Z,0
2018-01-05T01:04:07.989Z,0
2018-01-05T01:05:10.490Z,0
2018-01-05T01:06:13.002Z,0
2018-01-05T01:07:15.788Z,0
2018-01-05T01:08:18.274Z,0
2018-01-05T01:09:20.771Z,0
2018-01-05T01:10:23.275Z,0
2018-01-05T01:11:25.759Z,0
2018-01-05T01:12:28.251Z,0
2018-01-05T01:13:30.747Z,0
2018-01-05T01:14:33.237Z,0
2018-01-05T01:15:35.749Z,0
2018-01-05T01:16:38.241Z,0
2018-01-05T01:17:40.733Z,0
2018-01-05T01:18:43.512Z,0
2018-01-05T01:19:46.004Z,0
2018-01-05T01:20:48.510Z,0
2018-01-05T01:21:51.013Z,0
2018-01-05T01:22:53.496Z,0
2018-01-05T01:23:55.999Z,0
2018-01-05T01:24:58.498Z,0
2018-01-05T01:26:00.994Z,0
2018-01-05T01:27:03.770Z,0
2018-01-05T01:28:06.263Z,0
2018-01-05T01:29:08.748Z,0
2018-01-05T01:30:11.548Z,0
2018-01-05T01:31:14.064Z,0
2018-01-05T01:32:16.560Z,0
2018-01-05T01:33:19.054Z,0
2018-01-05T01:34:21.562Z,0
2018-01-05T01:35:24.353Z,0
2018-01-05T01:36:26.843Z,0
2018-01-05T01:37:29.341Z,0
2018-01-05T01:38:31.839Z,0
2018-01-05T01:39:34.323Z,0
2018-01-05T01:40:36.819Z,0
2018-01-05T01:41:39.616Z,0
2018-01-05T01:42:42.103Z,0
2018-01-05T01:43:44.884Z,0
2018-01-05T01:44:47.380Z,0
2018-01-05T01:45:49.875Z,0
2018-01-05T01:46:52.372Z,0
2018-01-05T01:47:54.875Z,0
2018-01-05T01:48:57.350Z,0
2018-01-05T01:49:59.855Z,0
2018-01-05T01:51:02.646Z,0
2018-01-05T01:52:05.141Z,0
2018-01-05T01:53:07.638Z,0
2018-01-05T01:54:10.407Z,0
2018-01-05T01:55:12.950Z,0
2018-01-05T01:56:15.468Z,0
2018-01-05T01:57:17.992Z,0
2018-01-05T01:58:20.495Z,0
2018-01-05T01:59:22.987Z,0
2018-01-05T02:00:25.475Z,0
2018-01-05T02:01:27.973Z,0
2018-01-05T02:02:30.480Z,0
2018-01-05T02:03:33.253Z,0
2018-01-05T02:04:35.744Z,0
2018-01-05T02:05:38.527Z,0
2018-01-05T02:06:41.041Z,0
2018-01-05T02:07:43.524Z,0
2018-01-05T02:08:46.022Z,0
2018-01-05T02:09:48.520Z,0
2018-01-05T02:10:51.008Z,0
2018-01-05T02:11:53.510Z,0
2018-01-05T02:12:56.006Z,0
2018-01-05T02:13:58.485Z,0
2018-01-05T02:15:01.002Z,0
2018-01-05T02:16:03.491Z,0
2018-01-05T02:17:05.984Z,0
2018-01-05T02:18:08.474Z,0
2018-01-05T02:19:10.970Z,0
2018-01-05T02:20:13.466Z,0
2018-01-05T02:21:16.254Z,0
2018-01-05T02:22:18.735Z,0
2018-01-05T02:23:21.237Z,0
2018-01-05T02:24:24.014Z,0
2018-01-05T02:25:26.510Z,0
2018-01-05T02:26:29.006Z,0
2018-01-05T02:27:31.495Z,0
2018-01-05T02:28:33.997Z,0
2018-01-05T02:29:36.789Z,0
2018-01-05T02:30:39.283Z,0
2018-01-05T02:31:41.775Z,0
2018-01-05T02:32:44.268Z,0
2018-01-05T02:33:46.768Z,0
2018-01-05T02:34:49.250Z,0
2018-01-05T02:35:51.743Z,0
2018-01-05T02:36:54.234Z,0
2018-01-05T02:37:56.736Z,0
2018-01-05T02:38:59.216Z,0
2018-01-05T02:40:01.996Z,0
2018-01-05T02:41:04.502Z,0
2018-01-05T02:42:07.004Z,0
2018-01-05T02:43:09.497Z,0
2018-01-05T02:44:12.290Z,0
2018-01-05T02:45:15.379Z,0
2018-01-05T02:46:18.188Z,0
2018-01-05T02:47:20.679Z,0
2018-01-05T02:48:23.170Z,0
2018-01-05T02:49:25.669Z,0
2018-01-05T02:50:28.161Z,0
2018-01-05T02:51:30.720Z,0
2018-01-05T02:52:33.442Z,0
2018-01-05T02:53:35.932Z,0
2018-01-05T02:54:38.424Z,0
2018-01-05T02:55:40.939Z,0
2018-01-05T02:56:43.420Z,0
2018-01-05T02:57:46.232Z,0
2018-01-05T02:58:49.002Z,0
2018-01-05T02:59:51.493Z,0
2018-01-05T03:00:53.990Z,0
2018-01-05T03:01:56.487Z,0
2018-01-05T03:02:59.260Z,0
2018-01-05T03:04:01.777Z,0
2018-01-05T03:05:04.264Z,0
2018-01-05T03:06:06.763Z,0
2018-01-05T03:07:09.540Z,0
2018-01-05T03:08:12.039Z,0
2018-01-05T03:09:14.541Z,0
2018-01-05T03:10:17.310Z,0
2018-01-05T03:11:19.811Z,0
2018-01-05T03:12:22.302Z,0
2018-01-05T03:13:24.797Z,0
2018-01-05T03:14:27.597Z,0
2018-01-05T03:15:30.375Z,0
2018-01-05T03:16:32.968Z,0
2018-01-05T03:17:35.473Z,0
2018-01-05T03:18:38.253Z,0
2018-01-05T03:19:40.751Z,0
2018-01-05T03:20:43.545Z,0
2018-01-05T03:21:46.027Z,0
2018-01-05T03:22:48.525Z,0
2018-01-05T03:23:51.032Z,0
2018-01-05T03:24:53.807Z,0
2018-01-05T03:25:56.593Z,0
2018-01-05T03:26:59.094Z,0
2018-01-05T03:28:01.584Z,0
2018-01-05T03:29:04.085Z,0
2018-01-05T03:30:06.579Z,0
2018-01-05T03:31:09.381Z,0
2018-01-05T03:32:11.888Z,0
2018-01-05T03:33:14.387Z,0
2018-01-05T03:34:16.870Z,0
2018-01-05T03:35:19.657Z,0
2018-01-05T03:36:22.456Z,0
2018-01-05T03:37:24.950Z,0
2018-01-05T03:38:27.438Z,0
2018-01-05T03:39:30.214Z,0
2018-01-05T03:40:32.715Z,0
2018-01-05T03:41:35.208Z,0
2018-01-05T03:42:37.704Z,0
2018-01-05T03:43:40.180Z,0
2018-01-05T03:44:42.675Z,0
2018-01-05T03:45:45.481Z,0
2018-01-05T03:46:47.979Z,0
2018-01-05T03:47:50.475Z,0
2018-01-05T03:48:52.966Z,0
2018-01-05T03:49:55.753Z,0
2018-01-05T03:50:58.243Z,0
2018-01-05T03:52:00.746Z,0
2018-01-05T03:53:03.233Z,0
2018-01-05T03:54:05.731Z,0
2018-01-05T03:55:08.519Z,0
2018-01-05T03:56:11.002Z,0
2018-01-05T03:57:13.501Z,0
2018-01-05T03:58:15.990Z,0
2018-01-05T03:59:18.485Z,0
2018-01-05T04:00:20.981Z,0
2018-01-05T04:01:23.475Z,0
2018-01-05T04:02:26.260Z,0
2018-01-05T04:03:29.036Z,0
2018-01-05T04:04:31.536Z,0
2018-01-05T04:05:34.031Z,0
2018-01-05T04:06:36.524Z,0
2018-01-05T04:07:39.024Z,0
2018-01-05T04:08:42.395Z,0
2018-01-05T04:09:44.878Z,0
2018-01-05T04:10:47.383Z,0
2018-01-05T04:11:49.872Z,0
2018-01-05T04:12:52.373Z,0
2018-01-05T04:13:54.863Z,0
2018-01-05T04:14:57.359Z,0
2018-01-05T04:15:59.845Z,0
2018-01-05T04:17:02.363Z,0
2018-01-05T04:18:05.128Z,0
2018-01-05T04:19:07.642Z,0
2018-01-05T04:20:10.137Z,0
2018-01-05T04:21:12.619Z,0
2018-01-05T04:22:15.127Z,0
2018-01-05T04:23:17.617Z,0
2018-01-05T04:24:20.118Z,0
2018-01-05T04:25:22.621Z,0
2018-01-05T04:26:25.105Z,0
2018-01-05T04:27:27.596Z,0
2018-01-05T04:28:30.099Z,0
2018-01-05T04:29:32.588Z,0
2018-01-05T04:30:35.077Z,0
2018-01-05T04:31:37.582Z,0
2018-01-05T04:32:40.070Z,0
2018-01-05T04:33:42.570Z,0
2018-01-05T04:34:45.070Z,0
2018-01-05T04:35:47.563Z,0
2018-01-05T04:36:50.065Z,0
2018-01-05T04:37:52.561Z,0
2018-01-05T04:38:55.056Z,0
2018-01-05T04:39:57.552Z,0
2018-01-05T04:41:00.045Z,0
2018-01-05T04:42:02.537Z,0
2018-01-05T04:43:05.043Z,0
2018-01-05T04:44:07.537Z,0
2018-01-05T04:45:10.347Z,0
2018-01-05T04:46:12.853Z,0
2018-01-05T04:47:15.353Z,0
2018-01-05T04:48:17.850Z,0
2018-01-05T04:49:20.348Z,0
2018-01-05T04:50:22.843Z,0
2018-01-05T04:51:25.622Z,0
2018-01-05T04:52:28.130Z,0
2018-01-05T04:53:30.948Z,0
2018-01-05T04:54:33.452Z,0
2018-01-05T04:55:35.948Z,0
2018-01-05T04:56:38.757Z,0
2018-01-05T04:57:42.257Z,0
2018-01-05T04:58:44.776Z,0
2018-01-05T04:59:47.260Z,0
2018-01-05T05:00:49.749Z,0
2018-01-05T05:01:52.267Z,0
2018-01-05T05:02:54.749Z,0
2018-01-05T05:03:57.250Z,0
2018-01-05T05:04:59.739Z,0
2018-01-05T05:06:02.244Z,0
2018-01-05T05:07:04.719Z,0
2018-01-05T05:08:07.503Z,0
2018-01-05T05:09:10.009Z,0
2018-01-05T05:10:12.496Z,0
2018-01-05T05:11:14.994Z,0
2018-01-05T05:12:17.492Z,0
2018-01-05T05:13:19.994Z,0
2018-01-05T05:14:22.499Z,0
2018-01-05T05:15:26.169Z,0
2018-01-05T05:16:28.703Z,0
2018-01-05T05:17:32.042Z,0
2018-01-05T05:18:34.728Z,0
2018-01-05T05:19:37.222Z,0
2018-01-05T05:20:39.721Z,0
2018-01-05T05:21:42.208Z,0
2018-01-05T05:22:44.714Z,0
2018-01-05T05:23:47.902Z,0
2018-01-05T05:24:50.727Z,0
2018-01-05T05:25:53.241Z,0
2018-01-05T05:26:56.024Z,0
2018-01-05T05:27:58.523Z,0
2018-01-05T05:29:01.017Z,0
2018-01-05T05:30:04.101Z,0
2018-01-05T05:31:06.628Z,0
2018-01-05T05:32:09.476Z,0
2018-01-05T05:33:12.018Z,0
2018-01-05T05:34:14.505Z,0
2018-01-05T05:35:16.996Z,0
2018-01-05T05:36:19.495Z,0
2018-01-05T05:37:22.004Z,0
2018-01-05T05:38:24.515Z,0
2018-01-05T05:39:27.023Z,0
2018-01-05T05:40:29.505Z,0
2018-01-05T05:41:32.286Z,0
2018-01-05T05:42:35.089Z,0
2018-01-05T05:43:37.572Z,0
2018-01-05T05:44:40.063Z,0
2018-01-05T05:45:42.838Z,0
2018-01-05T05:46:45.335Z,0
2018-01-05T05:47:47.851Z,0
2018-01-05T05:48:50.644Z,0
2018-01-05T05:49:53.135Z,0
2018-01-05T05:50:55.945Z,0
2018-01-05T05:51:58.432Z,0
2018-01-05T05:53:00.935Z,0
2018-01-05T05:54:03.427Z,0
2018-01-05T05:55:05.923Z,0
2018-01-05T05:56:08.417Z,0
2018-01-05T05:57:10.916Z,0
2018-01-05T05:58:13.411Z,0
2018-01-05T05:59:15.902Z,0
2018-01-05T06:00:18.391Z,0
2018-01-05T06:01:20.898Z,0
2018-01-05T06:02:23.379Z,0
2018-01-05T06:03:26.163Z,0
2018-01-05T06:04:28.954Z,0
2018-01-05T06:05:31.456Z,0
2018-01-05T06:06:33.931Z,0
2018-01-05T06:07:36.439Z,0
2018-01-05T06:08:38.939Z,0
2018-01-05T06:09:41.433Z,0
2018-01-05T06:10:43.931Z,0
2018-01-05T06:11:46.422Z,0
2018-01-05T06:12:49.199Z,0
2018-01-05T06:13:51.994Z,0
2018-01-05T06:14:54.481Z,0
2018-01-05T06:15:56.982Z,0
2018-01-05T06:16:59.480Z,0
2018-01-05T06:18:01.962Z,0
2018-01-05T06:19:04.465Z,0
2018-01-05T06:20:07.545Z,0
2018-01-05T06:21:10.028Z,0
2018-01-05T06:22:12.527Z,0
2018-01-05T06:23:15.020Z,0
2018-01-05T06:24:17.500Z,0
2018-01-05T06:25:20.014Z,0
2018-01-05T06:26:22.496Z,0
2018-01-05T06:27:24.989Z,0
2018-01-05T06:28:27.496Z,0
2018-01-05T06:29:29.992Z,0
2018-01-05T06:30:32.774Z,0
2018-01-05T06:31:35.560Z,0
2018-01-05T06:32:38.058Z,0
2018-01-05T06:33:40.544Z,0
2018-01-05T06:34:43.047Z,0
2018-01-05T06:35:45.538Z,0
2018-01-05T06:36:48.324Z,0
2018-01-05T06:37:50.827Z,0
2018-01-05T06:38:53.609Z,0
2018-01-05T06:39:56.109Z,0
2018-01-05T06:40:58.616Z,0
2018-01-05T06:42:01.099Z,0
2018-01-05T06:43:03.597Z,0
2018-01-05T06:44:06.391Z,0
2018-01-05T06:45:08.885Z,0
2018-01-05T06:46:11.948Z,0
2018-01-05T06:47:14.437Z,0
2018-01-05T06:48:16.926Z,0
2018-01-05T06:49:19.722Z,0
2018-01-05T06:50:22.220Z,0
2018-01-05T06:51:24.721Z,0
2018-01-05T06:52:27.216Z,0
2018-01-05T06:53:29.709Z,0
2018-01-05T06:54:32.500Z,0
2018-01-05T06:55:35.036Z,4
2018-01-05T06:56:37.806Z,4
2018-01-05T06:57:40.299Z,4
2018-01-05T06:58:42.799Z,0
2018-01-05T06:59:45.293Z,4
2018-01-05T07:00:47.780Z,8
2018-01-05T07:01:50.283Z,8
2018-01-05T07:02:52.771Z,8
2018-01-05T07:03:55.266Z,8
2018-01-05T07:04:57.748Z,12
2018-01-05T07:06:00.256Z,12
2018-01-05T07:07:02.749Z,16
2018-01-05T07:08:05.229Z,20
2018-01-05T07:09:07.731Z,20
2018-01-05T07:10:10.230Z,20
2018-01-05T07:11:13.332Z,20
2018-01-05T07:12:15.828Z,20
2018-01-05T07:13:18.314Z,24
2018-01-05T07:14:20.805Z,32
2018-01-05T07:15:23.318Z,36
2018-01-05T07:16:25.817Z,44
2018-01-05T07:17:28.305Z,48
2018-01-05T07:18:30.812Z,64
2018-01-05T07:19:33.891Z,96
2018-01-05T07:20:36.708Z,104
2018-01-05T07:21:39.200Z,96
2018-01-05T07:22:41.681Z,104
2018-01-05T07:23:44.177Z,128
2018-01-05T07:24:46.667Z,140
2018-01-05T07:25:49.454Z,176
2018-01-05T07:26:52.243Z,168
2018-01-05T07:27:54.726Z,148
2018-01-05T07:28:57.220Z,168
2018-01-05T07:29:59.725Z,200
2018-01-05T07:31:02.230Z,208
2018-01-05T07:32:04.715Z,224
2018-01-05T07:33:07.208Z,248
2018-01-05T07:34:09.719Z,264
2018-01-05T07:35:12.195Z,288
2018-01-05T07:36:14.689Z,348
2018-01-05T07:37:17.184Z,388
2018-01-05T07:38:19.661Z,416
2018-01-05T07:39:22.175Z,364
2018-01-05T07:40:25.259Z,324
2018-01-05T07:41:27.786Z,332
2018-01-05T07:42:30.396Z,332
2018-01-05T07:43:32.887Z,352
2018-01-05T07:44:35.396Z,400
2018-01-05T07:45:37.908Z,428
2018-01-05T07:46:40.386Z,428
2018-01-05T07:47:42.886Z,500
2018-01-05T07:48:45.386Z,512
2018-01-05T07:49:47.880Z,516
2018-01-05T07:50:50.429Z,588
2018-01-05T07:51:52.926Z,648
2018-01-05T07:52:55.412Z,708
2018-01-05T07:53:57.926Z,836
2018-01-05T07:55:00.709Z,936
2018-01-05T07:56:03.192Z,1088
2018-01-05T07:57:05.696Z,1176
2018-01-05T07:58:08.192Z,1364
2018-01-05T07:59:10.689Z,1388
2018-01-05T08:00:13.183Z,1540
2018-01-05T08:01:15.694Z,1620
2018-01-05T08:02:18.192Z,1668
2018-01-05T08:03:20.679Z,1904
2018-01-05T08:04:23.184Z,2108
2018-01-05T08:05:25.702Z,2124
2018-01-05T08:06:28.774Z,2244
2018-01-05T08:07:31.264Z,2324
2018-01-05T08:08:33.768Z,2580
2018-01-05T08:09:36.560Z,2464
2018-01-05T08:10:39.064Z,2308
2018-01-05T08:11:41.856Z,2312
2018-01-05T08:12:44.335Z,2208
2018-01-05T08:13:46.839Z,2308
2018-01-05T08:14:49.335Z,1876
2018-01-05T08:15:51.843Z,1652
2018-01-05T08:16:54.348Z,1568
2018-01-05T08:17:56.833Z,1504
2018-01-05T08:18:59.321Z,1612
2018-01-05T08:20:01.838Z,1816
2018-01-05T08:21:04.913Z,2076
2018-01-05T08:22:07.408Z,2384
2018-01-05T08:23:09.912Z,2504
2018-01-05T08:24:12.407Z,2648
2018-01-05T08:25:15.194Z,2628
2018-01-05T08:26:17.703Z,2820
2018-01-05T08:27:20.487Z,2796
2018-01-05T08:28:23.909Z,2616
2018-01-05T08:29:26.407Z,3140
2018-01-05T08:30:28.917Z,3180
2018-01-05T08:31:31.435Z,2492
2018-01-05T08:32:33.937Z,2524
2018-01-05T08:33:36.728Z,1916
2018-01-05T08:34:39.282Z,1716
2018-01-05T08:35:41.804Z,1716
2018-01-05T08:36:44.293Z,2880
2018-01-05T08:37:46.805Z,1724
2018-01-05T08:38:49.298Z,1764
2018-01-05T08:39:52.369Z,2128
2018-01-05T08:40:54.875Z,2092
2018-01-05T08:41:57.943Z,2244
2018-01-05T08:43:00.444Z,1908
2018-01-05T08:44:03.234Z,2136
2018-01-05T08:45:05.722Z,1796
2018-01-05T08:46:08.230Z,1860
2018-01-05T08:47:10.719Z,1916
2018-01-05T08:48:13.215Z,1760
2018-01-05T08:49:15.709Z,1608
2018-01-05T08:50:18.208Z,1432
2018-01-05T08:51:20.701Z,1468
2018-01-05T08:52:23.215Z,1688
2018-01-05T08:53:25.978Z,1852
2018-01-05T08:54:28.776Z,2296
2018-01-05T08:55:31.275Z,3044
2018-01-05T08:56:33.763Z,2672
2018-01-05T08:57:36.557Z,2472
2018-01-05T08:58:39.055Z,3328
2018-01-05T08:59:41.841Z,3024
2018-01-05T09:00:44.333Z,3732
2018-01-05T09:01:46.826Z,3936
2018-01-05T09:02:49.338Z,3588
2018-01-05T09:03:51.835Z,3600
2018-01-05T09:04:54.604Z,4544
2018-01-05T09:05:57.398Z,3664
2018-01-05T09:07:00.178Z,3912
2018-01-05T09:08:02.678Z,3992
2018-01-05T09:09:05.176Z,3492
2018-01-05T09:10:07.677Z,2992
2018-01-05T09:11:10.161Z,2840
2018-01-05T09:12:12.666Z,2856
2018-01-05T09:13:15.167Z,2200
2018-01-05T09:14:17.659Z,2528
2018-01-05T09:15:20.146Z,2180
2018-01-05T09:16:22.929Z,2000
2018-01-05T09:17:25.424Z,2352
2018-01-05T09:18:27.921Z,2672
2018-01-05T09:19:30.402Z,2632
2018-01-05T09:20:32.903Z,3344
2018-01-05T09:21:35.402Z,3632
2018-01-05T09:22:37.897Z,3816
2018-01-05T09:23:40.398Z,8708
2018-01-05T09:24:42.957Z,7164
2018-01-05T09:25:45.455Z,6980
2018-01-05T09:26:48.330Z,9592
2018-01-05T09:27:51.811Z,4912
2018-01-05T09:28:54.303Z,3076
2018-01-05T09:29:57.428Z,2732
2018-01-05T09:31:00.217Z,2692
2018-01-05T09:32:02.711Z,3464
2018-01-05T09:33:05.208Z,3500
2018-01-05T09:34:07.714Z,3208
2018-01-05T09:35:10.261Z,2728
2018-01-05T09:36:12.700Z,2136
2018-01-05T09:37:16.078Z,1804
2018-01-05T09:38:18.565Z,1720
2018-01-05T09:39:21.064Z,1868
2018-01-05T09:40:23.852Z,2200
2018-01-05T09:41:26.332Z,2124
2018-01-05T09:42:29.122Z,1964
2018-01-05T09:43:31.612Z,1760
2018-01-05T09:44:34.100Z,1648
2018-01-05T09:45:37.173Z,1524
2018-01-05T09:46:39.671Z,1440
2018-01-05T09:47:42.162Z,1580
2018-01-05T09:48:44.659Z,1720
2018-01-05T09:49:47.156Z,1748
2018-01-05T09:50:49.656Z,1576
2018-01-05T09:51:52.161Z,1652
2018-01-05T09:52:54.932Z,2004
2018-01-05T09:53:57.435Z,1824
2018-01-05T09:55:00.748Z,2148
2018-01-05T09:56:03.344Z,2260
2018-01-05T09:57:06.528Z,2460
2018-01-05T09:58:09.386Z,2552
2018-01-05T09:59:11.890Z,2592
2018-01-05T10:00:14.375Z,2320
2018-01-05T10:01:16.868Z,3112
2018-01-05T10:02:19.388Z,3020
2018-01-05T10:03:22.448Z,2544
2018-01-05T10:04:24.950Z,3096
2018-01-05T10:05:27.442Z,3716
2018-01-05T10:06:30.230Z,2908
2018-01-05T10:07:32.720Z,4260
2018-01-05T10:08:35.222Z,4540
2018-01-05T10:09:37.992Z,4832
2018-01-05T10:10:40.495Z,5372
2018-01-05T10:11:42.992Z,4544
2018-01-05T10:12:45.483Z,5724
2018-01-05T10:13:47.982Z,4428
2018-01-05T10:14:50.464Z,4580
2018-01-05T10:15:52.959Z,5568
2018-01-05T10:16:55.465Z,4984
2018-01-05T10:17:57.955Z,4684
2018-01-05T10:19:00.746Z,3612
2018-01-05T10:20:03.525Z,3748
2018-01-05T10:21:06.365Z,4196
2018-01-05T10:22:09.149Z,4376
2018-01-05T10:23:11.670Z,5020
2018-01-05T10:24:17.745Z,4064
2018-01-05T10:25:20.251Z,3452
2018-01-05T10:26:22.747Z,3856
2018-01-05T10:27:25.247Z,5532
2018-01-05T10:28:27.746Z,4276
2018-01-05T10:29:30.240Z,5064
2018-01-05T10:30:32.738Z,3612
2018-01-05T10:31:35.223Z,3352
2018-01-05T10:32:37.734Z,2968
2018-01-05T10:33:40.534Z,2524
2018-01-05T10:34:43.020Z,1892
2018-01-05T10:35:45.806Z,2064
2018-01-05T10:36:48.599Z,1964
2018-01-05T10:37:51.087Z,1664
2018-01-05T10:38:53.584Z,1500
2018-01-05T10:39:56.087Z,1688
2018-01-05T10:40:58.576Z,1876
2018-01-05T10:42:01.077Z,2112
2018-01-05T10:43:03.569Z,2224
2018-01-05T10:44:06.356Z,2184
2018-01-05T10:45:08.865Z,2308
2018-01-05T10:46:11.356Z,2024
2018-01-05T10:47:13.850Z,2340
2018-01-05T10:48:16.353Z,1912
2018-01-05T10:49:19.132Z,1672
2018-01-05T10:50:21.635Z,1628
2018-01-05T10:51:24.143Z,1584
2018-01-05T10:52:26.615Z,1904
2018-01-05T10:53:29.116Z,1544
2018-01-05T10:54:31.620Z,1448
2018-01-05T10:55:34.117Z,1612
2018-01-05T10:56:36.611Z,1684
2018-01-05T10:57:39.109Z,1724
2018-01-05T10:58:41.608Z,1544
2018-01-05T10:59:44.089Z,1528
2018-01-05T11:00:46.586Z,1300
2018-01-05T11:01:49.364Z,1420
2018-01-05T11:02:51.860Z,1540
2018-01-05T11:03:54.361Z,1424
2018-01-05T11:04:56.867Z,1524
2018-01-05T11:05:59.636Z,1532
2018-01-05T11:07:02.142Z,1760
2018-01-05T11:08:04.639Z,1724
2018-01-05T11:09:07.439Z,2052
2018-01-05T11:10:09.932Z,1936
2018-01-05T11:11:12.432Z,1832
2018-01-05T11:12:14.921Z,1712
2018-01-05T11:13:17.423Z,1528
2018-01-05T11:14:19.920Z,1552
2018-01-05T11:15:22.419Z,1368
2018-01-05T11:16:24.929Z,1636
2018-01-05T11:17:27.417Z,1508
2018-01-05T11:18:29.911Z,1492
2018-01-05T11:19:32.421Z,1076
2018-01-05T11:20:34.918Z,1012
2018-01-05T11:21:37.413Z,1108
2018-01-05T11:22:39.908Z,1072
2018-01-05T11:23:42.389Z,1912
2018-01-05T11:24:44.892Z,1516
2018-01-05T11:25:47.392Z,1544
2018-01-05T11:26:49.882Z,1212
2018-01-05T11:27:52.658Z,1872
2018-01-05T11:28:55.450Z,1608
2018-01-05T11:29:58.520Z,1348
2018-01-05T11:31:01.015Z,1536
2018-01-05T11:32:03.523Z,1932
2018-01-05T11:33:06.034Z,2084
2018-01-05T11:34:08.526Z,1540
2018-01-05T11:35:11.027Z,1336
2018-01-05T11:36:13.524Z,1544
2018-01-05T11:37:16.025Z,1840
2018-01-05T11:38:18.524Z,1864
2018-01-05T11:39:21.024Z,1788
2018-01-05T11:40:23.511Z,1716
2018-01-05T11:41:26.596Z,1720
2018-01-05T11:42:29.094Z,1756
2018-01-05T11:43:31.581Z,1696
2018-01-05T11:44:34.374Z,1684
2018-01-05T11:45:36.861Z,1628
2018-01-05T11:46:39.355Z,1724
2018-01-05T11:47:41.864Z,1716
2018-01-05T11:48:44.358Z,1896
2018-01-05T11:49:46.839Z,2148
2018-01-05T11:50:49.353Z,2320
2018-01-05T11:51:52.128Z,2436
2018-01-05T11:52:54.628Z,2676
2018-01-05T11:53:57.124Z,3180
2018-01-05T11:54:59.627Z,3504
2018-01-05T11:56:02.420Z,3512
2018-01-05T11:57:04.931Z,3276
2018-01-05T11:58:07.421Z,3432
2018-01-05T11:59:09.915Z,3304
2018-01-05T12:00:12.993Z,3272
2018-01-05T12:01:15.484Z,3184
2018-01-05T12:02:17.979Z,3360
2018-01-05T12:03:20.469Z,3708
2018-01-05T12:04:22.983Z,3628
2018-01-05T12:05:26.057Z,3580
2018-01-05T12:06:28.832Z,3248
2018-01-05T12:07:31.324Z,3540
2018-01-05T12:08:33.819Z,3804
2018-01-05T12:09:36.314Z,4348
2018-01-05T12:10:39.103Z,4516
2018-01-05T12:11:41.597Z,4596
2018-01-05T12:12:44.090Z,5552
2018-01-05T12:13:46.589Z,5880
2018-01-05T12:14:49.083Z,6596
2018-01-05T12:15:51.591Z,7104
2018-01-05T12:16:54.246Z,7980
2018-01-05T12:17:56.737Z,7864
2018-01-05T12:18:59.530Z,6468
2018-01-05T12:20:02.026Z,5076
2018-01-05T12:21:04.524Z,5576
2018-01-05T12:22:07.026Z,5876
2018-01-05T12:23:09.504Z,5644
2018-01-05T12:24:11.992Z,4996
2018-01-05T12:25:14.502Z,4924
2018-01-05T12:26:16.993Z,4768
2018-01-05T12:27:19.807Z,4912
2018-01-05T12:28:22.288Z,5360
2018-01-05T12:29:25.080Z,5280
2018-01-05T12:30:27.881Z,4908
2018-01-05T12:31:30.376Z,4824
2018-01-05T12:32:32.870Z,5064
2018-01-05T12:33:35.369Z,5616
2018-01-05T12:34:37.880Z,4684
2018-01-05T12:35:40.374Z,3692
2018-01-05T12:36:42.875Z,3696
2018-01-05T12:37:45.355Z,3488
2018-01-05T12:38:47.858Z,3312
2018-01-05T12:39:50.355Z,3052
2018-01-05T12:40:52.853Z,2872
2018-01-05T12:41:55.339Z,2908
2018-01-05T12:42:57.839Z,2684
2018-01-05T12:44:00.333Z,2888
2018-01-05T12:45:02.829Z,3064
2018-01-05T12:46:05.327Z,3240
2018-01-05T12:47:07.822Z,3696
2018-01-05T12:48:10.307Z,3260
2018-01-05T12:49:12.829Z,3584
2018-01-05T12:50:15.316Z,3404
2018-01-05T12:51:18.102Z,3140
2018-01-05T12:52:20.596Z,3200
2018-01-05T12:53:23.090Z,3580
2018-01-05T12:54:25.581Z,3148
2018-01-05T12:55:28.088Z,3324
2018-01-05T12:56:30.569Z,3216
2018-01-05T12:57:33.105Z,2708
2018-01-05T12:58:35.567Z,3152
2018-01-05T12:59:38.229Z,2864
2018-01-05T13:00:40.720Z,2552
2018-01-05T13:01:43.229Z,2260
2018-01-05T13:02:45.717Z,2180
2018-01-05T13:03:48.530Z,2092
2018-01-05T13:04:51.025Z,2060
2018-01-05T13:05:53.803Z,1928
2018-01-05T13:06:56.343Z,1688
2018-01-05T13:07:59.239Z,1744
2018-01-05T13:09:01.734Z,1708
2018-01-05T13:10:04.549Z,1652
2018-01-05T13:11:07.052Z,1752
2018-01-05T13:12:09.537Z,1732
2018-01-05T13:13:12.390Z,1720
2018-01-05T13:14:14.889Z,1796
2018-01-05T13:15:17.371Z,1612
2018-01-05T13:16:19.878Z,1552
2018-01-05T13:17:22.650Z,1544
2018-01-05T13:18:25.447Z,1292
2018-01-05T13:19:28.254Z,1204
2018-01-05T13:20:30.747Z,1388
2018-01-05T13:21:33.240Z,1340
2018-01-05T13:22:35.752Z,1252
2018-01-05T13:23:38.245Z,1316
2018-01-05T13:24:40.744Z,1364
2018-01-05T13:25:43.246Z,1312
2018-01-05T13:26:45.748Z,1272
2018-01-05T13:27:48.247Z,1252
2018-01-05T13:28:51.032Z,1236
2018-01-05T13:29:53.544Z,1272
2018-01-05T13:30:56.038Z,1196
2018-01-05T13:31:58.528Z,1236
2018-01-05T13:33:01.028Z,1220
2018-01-05T13:34:03.551Z,1220
2018-01-05T13:35:06.043Z,1176
2018-01-05T13:36:08.546Z,1204
2018-01-05T13:37:11.023Z,1216
2018-01-05T13:38:13.529Z,1228
2018-01-05T13:39:16.035Z,1404
2018-01-05T13:40:18.554Z,1352
2018-01-05T13:41:21.087Z,1376
2018-01-05T13:42:23.811Z,1416
2018-01-05T13:43:26.307Z,1300
2018-01-05T13:44:28.807Z,1544
2018-01-05T13:45:31.314Z,1728
2018-01-05T13:46:33.797Z,1628
2018-01-05T13:47:36.581Z,1336
2018-01-05T13:48:39.380Z,1536
2018-01-05T13:49:41.871Z,1328
2018-01-05T13:50:44.372Z,1104
2018-01-05T13:51:46.871Z,1016
2018-01-05T13:52:49.357Z,904
2018-01-05T13:53:51.870Z,940
2018-01-05T13:54:54.654Z,964
2018-01-05T13:55:57.140Z,832
2018-01-05T13:56:59.643Z,732
2018-01-05T13:58:02.148Z,732
2018-01-05T13:59:04.643Z,756
2018-01-05T14:00:07.133Z,780
2018-01-05T14:01:09.642Z,724
2018-01-05T14:02:12.664Z,804
2018-01-05T14:03:18.465Z,824
2018-01-05T14:04:24.138Z,932
2018-01-05T14:05:26.684Z,796
2018-01-05T14:06:29.664Z,720
2018-01-05T14:07:33.207Z,712
2018-01-05T14:08:36.210Z,592
2018-01-05T14:09:38.812Z,584
2018-01-05T14:10:41.329Z,656
2018-01-05T14:11:44.095Z,652
2018-01-05T14:12:46.607Z,592
2018-01-05T14:13:49.089Z,572
2018-01-05T14:14:51.594Z,472
2018-01-05T14:15:54.241Z,448
2018-01-05T14:16:56.736Z,416
2018-01-05T14:17:59.233Z,484
2018-01-05T14:19:01.745Z,544
2018-01-05T14:20:04.293Z,468
2018-01-05T14:21:07.088Z,532
2018-01-05T14:22:09.587Z,592
2018-01-05T14:23:12.381Z,504
2018-01-05T14:24:15.163Z,408
2018-01-05T14:25:17.663Z,384
2018-01-05T14:26:20.178Z,368
2018-01-05T14:27:22.652Z,376
2018-01-05T14:28:25.152Z,392
2018-01-05T14:29:27.654Z,336
2018-01-05T14:30:30.142Z,324
2018-01-05T14:31:32.948Z,324
2018-01-05T14:32:35.442Z,344
2018-01-05T14:33:37.928Z,304
2018-01-05T14:34:40.434Z,324
2018-01-05T14:35:42.926Z,320
2018-01-05T14:36:45.414Z,340
2018-01-05T14:37:48.212Z,272
2018-01-05T14:38:50.710Z,236